ADDS METAR Data INFO
IDs: Format: Raw Decoded Include TAF

Data at: 0317 UTC 20 Jul 2018

KFSE 200315Z AUTO 25004KT 10SM -DZ SCT011 SCT075 BKN085 18/17 A2985 RMK AO2
KFSE 200255Z AUTO 25003KT 10SM DZ SCT011 BKN020 BKN085 18/17 A2985 RMK AO2 P0001
KFSE 200235Z AUTO 27003KT 10SM RA SCT013 BKN080 BKN110 18/17 A2985 RMK AO2 P0001
KFSE 200215Z AUTO 24003KT 10SM RA SCT019 SCT070 BKN080 18/17 A2984 RMK AO2 P0001
KFSE 200155Z AUTO 00000KT 10SM -RA SCT080 18/17 A2984 RMK AO2 P0001
KFSE 200135Z AUTO 00000KT 7SM RA SCT013 18/17 A2983 RMK AO2
KFSE 200115Z AUTO 21003KT 10SM RA CLR 19/17 A2982 RMK AO2
KFSE 200055Z AUTO 23004KT 10SM RA CLR 19/18 A2982 RMK AO2
KFSE 200035Z AUTO 19004KT 10SM -DZ CLR 19/17 A2982 RMK AO2
KFSE 200015Z AUTO 00000KT 10SM CLR 19/17 A2981 RMK AO2
KFSE 192355Z AUTO 00000KT 10SM CLR 19/17 A2981 RMK AO2
KFSE 192335Z AUTO 17003KT 10SM CLR 19/17 A2980 RMK AO2
KFSE 192315Z AUTO 21003KT 10SM CLR 19/17 A2980 RMK AO2
KFSE 192255Z AUTO 22005KT 10SM CLR 19/17 A2981 RMK AO2
KFSE 192235Z AUTO 19004KT 10SM SCT022 19/17 A2982 RMK AO2
KFSE 192215Z AUTO 20006KT 10SM SCT022 SCT110 20/17 A2982 RMK AO2
KFSE 192155Z AUTO 25003KT 10SM SCT020 BKN035 120 21/17 A2981 RMK AO2
KFSE 192135Z AUTO 13006KT 10SM SCT020 22/17 A2982 RMK AO2
KFSE 192115Z AUTO 02003KT 10SM CLR 23/19 A2981 RMK AO2
KFSE 192055Z AUTO 35006KT 10SM CLR 23/18 A2981 RMK AO2
KFSE 192035Z AUTO 36006KT 10SM CLR 22/19 A2982 RMK AO2
KFSE 192015Z AUTO 35005KT 10SM CLR 22/19 A2981 RMK AO2
KFSE 191955Z AUTO 36004KT 10SM -RA CLR 22/19 A2981 RMK AO2 LTG DSNT N
KFSE 191935Z AUTO 34006KT 10SM CLR 22/18 A2982 RMK AO2 LTG DSNT N
KFSE 191915Z AUTO 35004KT 10SM VCTS SCT050 22/18 A2982 RMK AO2 LTG DSNT N
KFSE 191855Z AUTO 02003KT 10SM SCT050 22/18 A2983 RMK AO2
KFSE 191835Z AUTO 03003KT 10SM CLR 23/18 A2983 RMK AO2
KFSE 191815Z AUTO 03003KT 10SM CLR 23/18 A2983 RMK AO2
KFSE 191755Z AUTO 00000KT 10SM CLR 23/18 A2983 RMK AO2
KFSE 191735Z AUTO 00000KT 10SM CLR 23/18 A2983 RMK AO2
KFSE 191715Z AUTO 00000KT 10SM CLR 22/18 A2983 RMK AO2
KFSE 191655Z AUTO 00000KT 10SM SCT060 22/18 A2983 RMK AO2
KFSE 191635Z AUTO 00000KT 10SM SCT060 23/19 A2982 RMK AO2
KFSE 191615Z AUTO 00000KT 10SM CLR 23/19 A2982 RMK AO2
KFSE 191555Z AUTO 00000KT 10SM CLR 23/19 A2982 RMK AO2
KFSE 191535Z AUTO 00000KT 10SM SCT060 23/18 A2982 RMK AO2
KFSE 191515Z AUTO 16003KT 10SM SCT060 22/18 A2982 RMK AO2
KFSE 191455Z AUTO 15003KT 10SM SCT060 22/18 A2982 RMK AO2
KFSE 191435Z AUTO 15004KT 10SM CLR 22/18 A2982 RMK AO2
KFSE 191415Z AUTO 14003KT 10SM CLR 22/19 A2982 RMK AO2
KFSE 191355Z AUTO 00000KT 10SM CLR 21/18 A2982 RMK AO2
KFSE 191335Z AUTO 12003KT 10SM CLR 21/18 A2983 RMK AO2
KFSE 191315Z AUTO 13005KT 10SM CLR 20/17 A2983 RMK AO2
KFSE 191255Z AUTO 14004KT 10SM CLR 20/18 A2983 RMK AO2
KFSE 191236Z AUTO 14005KT 10SM CLR 20/18 A2983 RMK AO2
KFSE 191215Z AUTO 13005KT 10SM CLR 19/17 A2983 RMK AO2
KFSE 191155Z AUTO 13006KT 10SM CLR 18/17 A2983 RMK AO2
KFSE 191135Z AUTO 13005KT 10SM CLR 18/16 A2983 RMK AO2
KFSE 191115Z AUTO 13005KT 10SM CLR 17/15 A2984 RMK AO2
KFSE 191055Z AUTO 13005KT 10SM CLR 17/15 A2985 RMK AO2
KFSE 191035Z AUTO 13005KT 10SM SCT070 17/15 A2985 RMK AO2
KFSE 191015Z AUTO 14004KT 10SM CLR 17/15 A2986 RMK AO2
KFSE 190955Z AUTO 13005KT 10SM CLR 17/14 A2986 RMK AO2
KFSE 190935Z AUTO 12003KT 10SM CLR 17/14 A2986 RMK AO2
KFSE 190915Z AUTO 13003KT 10SM CLR 17/14 A2987 RMK AO2
KFSE 190855Z AUTO 11003KT 10SM SCT070 16/14 A2987 RMK AO2
KFSE 190835Z AUTO 11003KT 10SM SCT070 17/14 A2988 RMK AO2
KFSE 190815Z AUTO 11003KT 10SM CLR 17/14 A2989 RMK AO2
KFSE 190755Z AUTO 00000KT 10SM CLR 17/14 A2989 RMK AO2
KFSE 190735Z AUTO 11003KT 10SM CLR 17/14 A2990 RMK AO2
KFSE 190715Z AUTO 00000KT 10SM CLR 17/15 A2990 RMK AO2
KFSE 190655Z AUTO 00000KT 10SM CLR 18/16 A2990 RMK AO2
KFSE 190635Z AUTO 13003KT 10SM CLR 18/16 A2990 RMK AO2
KFSE 190615Z AUTO 14005KT 7SM CLR 19/17 A2991 RMK AO2
KFSE 190555Z AUTO 14004KT 7SM SCT070 19/17 A2991 RMK AO2
KFSE 190535Z AUTO 14004KT 10SM CLR 19/17 A2991 RMK AO2
KFSE 190515Z AUTO 15005KT 7SM CLR 19/16 A2991 RMK AO2
KFSE 190455Z AUTO 14005KT 10SM CLR 19/16 A2991 RMK AO2
KFSE 190435Z AUTO 14004KT 10SM CLR 18/16 A2992 RMK AO2
KFSE 190415Z AUTO 14003KT 10SM CLR 18/15 A2992 RMK AO2
KFSE 190355Z AUTO 12003KT 7SM CLR 19/16 A2992 RMK AO2
KFSE 190335Z AUTO 00000KT 10SM CLR 19/17 A2993 RMK AO2
KFSE 190315Z AUTO 14003KT 10SM CLR 18/17 A2993 RMK AO2
KFSE 190255Z AUTO 16004KT 10SM CLR 19/17 A2994 RMK AO2
KFSE 190235Z AUTO 16004KT 10SM CLR 19/17 A2994 RMK AO2
KFSE 190215Z AUTO 16004KT 10SM CLR 19/17 A2994 RMK AO2
KFSE 190155Z AUTO 16005KT 10SM CLR 21/17 A2993 RMK AO2
KFSE 190135Z AUTO 16004KT 10SM SCT070 22/18 A2994 RMK AO2
KFSE 190115Z AUTO 18005KT 10SM SCT070 23/18 A2994 RMK AO2
KFSE 190055Z AUTO 17006KT 10SM CLR 24/18 A2995 RMK AO2
KFSE 190035Z AUTO 17005KT 10SM CLR 26/18 A2995 RMK AO2
KFSE 190016Z AUTO 18005KT 10SM CLR 25/18 A2996 RMK AO2
KFSE 182355Z AUTO 19007KT 10SM CLR 26/18 A2995 RMK AO2
KFSE 182335Z AUTO 19008KT 10SM CLR 26/18 A2996 RMK AO2
KFSE 182317Z AUTO 17006KT 10SM CLR 26/18 A2996 RMK AO2
KFSE 182255Z AUTO 16006KT 10SM CLR 26/18 A2996 RMK AO2
KFSE 182235Z AUTO 18006KT 10SM CLR 26/18 A2997 RMK AO2
KFSE 182215Z AUTO 17006KT 10SM CLR 27/18 A2997 RMK AO2
KFSE 182155Z AUTO 19008KT 10SM CLR 26/18 A2998 RMK AO2
KFSE 182135Z AUTO 18008KT 10SM CLR 27/18 A2998 RMK AO2
KFSE 182115Z AUTO 20008KT 10SM CLR 27/18 A2999 RMK AO2
KFSE 182055Z AUTO 17007KT 10SM SCT036 27/18 A2999 RMK AO2
KFSE 182035Z AUTO 18009KT 10SM SCT036 26/18 A3000 RMK AO2
KFSE 182015Z AUTO 19008KT 10SM CLR 26/18 A3001 RMK AO2
KFSE 181955Z AUTO 19009KT 10SM SCT036 26/18 A3001 RMK AO2
KFSE 181935Z AUTO 16009KT 10SM SCT036 SCT045 26/18 A3001 RMK AO2
KFSE 181915Z AUTO 17008KT 10SM CLR 27/18 A3001 RMK AO2
KFSE 181855Z AUTO 18009KT 10SM CLR 26/17 A3002 RMK AO2
KFSE 181835Z AUTO 18009KT 10SM CLR 27/18 A3002 RMK AO2
KFSE 181815Z AUTO 15006KT 10SM CLR 26/18 A3003 RMK AO2
KFSE 181755Z AUTO 14006KT 10SM CLR 24/18 A3003 RMK AO2
KFSE 181735Z AUTO 16009KT 10SM CLR 24/17 A3004 RMK AO2
KFSE 181715Z AUTO 16006KT 10SM CLR 24/16 A3004 RMK AO2
KFSE 181655Z AUTO 15006KT 10SM CLR 24/17 A3005 RMK AO2
KFSE 181635Z AUTO 17007KT 10SM CLR 24/16 A3005 RMK AO2
KFSE 181615Z AUTO 15006KT 10SM CLR 24/17 A3006 RMK AO2
KFSE 181555Z AUTO 16008KT 10SM CLR 23/16 A3006 RMK AO2
KFSE 181535Z AUTO 19007KT 10SM CLR 23/16 A3007 RMK AO2